sensor_id;sensor_type;location;lat;lon;timestamp;pressure;altitude;pressure_sealevel;temperature;humidity
70559;BME280;58108;48.094;11.838;2022-10-16T00:00:53;95458.25;;;10.51;100.00
70559;BME280;58108;48.094;11.838;2022-10-16T00:03:18;95464.03;;;10.77;100.00
70559;BME280;58108;48.094;11.838;2022-10-16T00:05:44;95467.63;;;10.76;100.00
70559;BME280;58108;48.094;11.838;2022-10-16T00:08:11;95471.00;;;10.44;100.00
70559;BME280;58108;48.094;11.838;2022-10-16T00:10:36;95464.94;;;10.44;100.00
70559;BME280;58108;48.094;11.838;2022-10-16T00:13:03;95451.25;;;10.06;100.00
70559;BME280;58108;48.094;11.838;2022-10-16T00:15:28;95454.75;;;9.70;100.00
70559;BME280;58108;48.094;11.838;2022-10-16T00:17:53;95454.78;;;9.82;100.00
70559;BME280;58108;48.094;11.838;2022-10-16T00:20:19;95458.69;;;9.76;100.00
70559;BME280;58108;48.094;11.838;2022-10-16T00:22:44;95457.22;;;9.61;100.00
70559;BME280;58108;48.094;11.838;2022-10-16T00:25:09;95465.50;;;10.13;100.00
70559;BME280;58108;48.094;11.838;2022-10-16T00:27:34;95462.56;;;10.52;100.00
70559;BME280;58108;48.094;11.838;2022-10-16T00:30:00;95463.13;;;10.33;100.00
70559;BME280;58108;48.094;11.838;2022-10-16T00:32:25;95468.13;;;10.47;100.00
70559;BME280;58108;48.094;11.838;2022-10-16T00:34:50;95473.00;;;10.18;100.00
70559;BME280;58108;48.094;11.838;2022-10-16T00:37:16;95480.47;;;9.88;100.00
70559;BME280;58108;48.094;11.838;2022-10-16T00:39:41;95474.75;;;9.94;100.00
70559;BME280;58108;48.094;11.838;2022-10-16T00:42:06;95465.47;;;9.67;100.00
70559;BME280;58108;48.094;11.838;2022-10-16T00:47:22;95470.34;;;9.83;100.00
70559;BME280;58108;48.094;11.838;2022-10-16T00:49:50;95466.09;;;10.17;100.00
70559;BME280;58108;48.094;11.838;2022-10-16T00:52:18;95466.09;;;10.17;100.00
70559;BME280;58108;48.094;11.838;2022-10-16T00:54:46;95467.16;;;10.03;100.00
70559;BME280;58108;48.094;11.838;2022-10-16T00:57:12;95466.06;;;9.71;100.00
70559;BME280;58108;48.094;11.838;2022-10-16T00:59:40;95470.13;;;9.39;100.00
70559;BME280;58108;48.094;11.838;2022-10-16T01:02:09;95469.31;;;9.50;100.00
70559;BME280;58108;48.094;11.838;2022-10-16T01:04:38;95466.09;;;9.94;100.00
70559;BME280;58108;48.094;11.838;2022-10-16T01:09:57;95468.03;;;9.56;100.00
70559;BME280;58108;48.094;11.838;2022-10-16T01:12:46;95472.44;;;9.55;100.00
70559;BME280;58108;48.094;11.838;2022-10-16T01:15:59;95466.88;;;9.60;100.00
70559;BME280;58108;48.094;11.838;2022-10-16T01:20:54;95466.72;;;9.62;100.00
70559;BME280;58108;48.094;11.838;2022-10-16T01:29:09;95471.50;;;8.96;100.00
70559;BME280;58108;48.094;11.838;2022-10-16T01:31:40;95479.78;;;9.14;100.00
70559;BME280;58108;48.094;11.838;2022-10-16T01:34:16;95486.66;;;9.40;100.00
70559;BME280;58108;48.094;11.838;2022-10-16T01:37:12;95492.06;;;9.61;100.00
70559;BME280;58108;48.094;11.838;2022-10-16T01:39:36;95491.97;;;9.74;100.00
70559;BME280;58108;48.094;11.838;2022-10-16T01:42:09;95491.19;;;9.49;100.00
70559;BME280;58108;48.094;11.838;2022-10-16T01:44:37;95487.19;;;9.68;100.00
70559;BME280;58108;48.094;11.838;2022-10-16T01:47:05;95485.91;;;9.74;100.00
70559;BME280;58108;48.094;11.838;2022-10-16T01:49:33;95489.22;;;9.04;100.00
70559;BME280;58108;48.094;11.838;2022-10-16T01:52:04;95493.38;;;9.07;100.00
70559;BME280;58108;48.094;11.838;2022-10-16T01:54:32;95490.88;;;8.81;100.00
70559;BME280;58108;48.094;11.838;2022-10-16T01:56:59;95489.28;;;8.54;100.00
70559;BME280;58108;48.094;11.838;2022-10-16T01:59:29;95492.31;;;8.34;100.00
70559;BME280;58108;48.094;11.838;2022-10-16T02:02:00;95498.75;;;8.55;100.00
70559;BME280;58108;48.094;11.838;2022-10-16T02:04:51;95501.66;;;8.76;100.00
70559;BME280;58108;48.094;11.838;2022-10-16T02:07:18;95497.44;;;8.86;100.00
70559;BME280;58108;48.094;11.838;2022-10-16T02:09:44;95494.72;;;9.12;100.00
70559;BME280;58108;48.094;11.838;2022-10-16T02:12:31;95491.44;;;9.22;100.00
70559;BME280;58108;48.094;11.838;2022-10-16T02:14:57;95489.53;;;9.24;100.00
70559;BME280;58108;48.094;11.838;2022-10-16T02:17:23;95490.25;;;8.77;100.00
70559;BME280;58108;48.094;11.838;2022-10-16T02:19:51;95484.16;;;8.52;100.00
70559;BME280;58108;48.094;11.838;2022-10-16T02:22:28;95484.78;;;8.56;100.00
70559;BME280;58108;48.094;11.838;2022-10-16T02:24:58;95483.97;;;8.42;100.00
70559;BME280;58108;48.094;11.838;2022-10-16T02:33:02;95481.75;;;8.23;100.00
70559;BME280;58108;48.094;11.838;2022-10-16T02:35:29;95488.22;;;8.43;100.00
70559;BME280;58108;48.094;11.838;2022-10-16T02:37:56;95487.19;;;8.59;100.00
70559;BME280;58108;48.094;11.838;2022-10-16T02:40:23;95484.34;;;8.62;100.00
70559;BME280;58108;48.094;11.838;2022-10-16T02:42:52;95491.66;;;8.57;100.00
70559;BME280;58108;48.094;11.838;2022-10-16T02:45:18;95488.00;;;8.46;100.00
70559;BME280;58108;48.094;11.838;2022-10-16T02:47:44;95488.31;;;8.42;100.00
70559;BME280;58108;48.094;11.838;2022-10-16T02:50:09;95499.19;;;8.35;100.00
70559;BME280;58108;48.094;11.838;2022-10-16T02:52:34;95498.25;;;8.87;100.00
70559;BME280;58108;48.094;11.838;2022-10-16T02:55:00;95491.53;;;9.44;100.00
70559;BME280;58108;48.094;11.838;2022-10-16T02:57:25;95492.47;;;9.43;100.00
70559;BME280;58108;48.094;11.838;2022-10-16T02:59:51;95494.94;;;9.09;100.00
70559;BME280;58108;48.094;11.838;2022-10-16T03:02:16;95495.41;;;9.39;100.00
70559;BME280;58108;48.094;11.838;2022-10-16T03:04:41;95495.28;;;9.05;100.00
70559;BME280;58108;48.094;11.838;2022-10-16T03:07:07;95491.22;;;8.76;100.00
70559;BME280;58108;48.094;11.838;2022-10-16T03:09:32;95493.34;;;8.82;100.00
70559;BME280;58108;48.094;11.838;2022-10-16T03:11:58;95489.97;;;8.93;100.00
70559;BME280;58108;48.094;11.838;2022-10-16T03:14:23;95502.13;;;8.81;100.00
70559;BME280;58108;48.094;11.838;2022-10-16T03:16:48;95495.25;;;8.80;100.00
70559;BME280;58108;48.094;11.838;2022-10-16T03:19:16;95498.53;;;8.71;100.00
70559;BME280;58108;48.094;11.838;2022-10-16T03:21:41;95490.88;;;8.81;100.00
70559;BME280;58108;48.094;11.838;2022-10-16T03:24:07;95494.75;;;8.99;100.00
70559;BME280;58108;48.094;11.838;2022-10-16T03:26:32;95489.97;;;9.42;100.00
70559;BME280;58108;48.094;11.838;2022-10-16T03:28:57;95494.97;;;9.45;100.00
70559;BME280;58108;48.094;11.838;2022-10-16T03:31:23;95487.78;;;9.60;100.00
70559;BME280;58108;48.094;11.838;2022-10-16T03:33:48;95500.97;;;9.58;100.00
70559;BME280;58108;48.094;11.838;2022-10-16T03:36:13;95495.63;;;9.00;100.00
70559;BME280;58108;48.094;11.838;2022-10-16T03:38:38;95498.91;;;8.78;100.00
70559;BME280;58108;48.094;11.838;2022-10-16T03:41:04;95503.81;;;8.82;100.00
70559;BME280;58108;48.094;11.838;2022-10-16T03:43:29;95510.09;;;8.80;100.00
70559;BME280;58108;48.094;11.838;2022-10-16T03:45:54;95506.88;;;8.76;100.00
70559;BME280;58108;48.094;11.838;2022-10-16T03:48:20;95508.03;;;8.72;100.00
70559;BME280;58108;48.094;11.838;2022-10-16T03:50:45;95509.41;;;8.65;100.00
70559;BME280;58108;48.094;11.838;2022-10-16T03:53:13;95508.88;;;8.72;100.00
70559;BME280;58108;48.094;11.838;2022-10-16T03:55:38;95506.59;;;8.92;100.00
70559;BME280;58108;48.094;11.838;2022-10-16T03:58:03;95511.00;;;9.40;100.00
70559;BME280;58108;48.094;11.838;2022-10-16T04:00:28;95515.66;;;9.48;100.00
70559;BME280;58108;48.094;11.838;2022-10-16T04:02:54;95527.94;;;9.10;100.00
70559;BME280;58108;48.094;11.838;2022-10-16T04:05:19;95529.06;;;9.19;100.00
70559;BME280;58108;48.094;11.838;2022-10-16T04:07:44;95525.00;;;9.15;100.00
70559;BME280;58108;48.094;11.838;2022-10-16T04:10:09;95522.06;;;9.20;100.00
70559;BME280;58108;48.094;11.838;2022-10-16T04:12:35;95522.16;;;8.94;100.00
70559;BME280;58108;48.094;11.838;2022-10-16T04:15:01;95518.75;;;9.53;100.00
70559;BME280;58108;48.094;11.838;2022-10-16T04:17:26;95515.94;;;9.68;100.00
70559;BME280;58108;48.094;11.838;2022-10-16T04:19:51;95516.13;;;9.42;100.00
70559;BME280;58108;48.094;11.838;2022-10-16T04:22:17;95511.06;;;9.03;100.00
70559;BME280;58108;48.094;11.838;2022-10-16T04:24:42;95512.63;;;9.30;100.00
70559;BME280;58108;48.094;11.838;2022-10-16T04:27:07;95504.03;;;9.52;100.00
70559;BME280;58108;48.094;11.838;2022-10-16T04:29:33;95513.50;;;9.42;100.00
70559;BME280;58108;48.094;11.838;2022-10-16T04:31:58;95508.00;;;9.34;100.00
70559;BME280;58108;48.094;11.838;2022-10-16T04:34:23;95511.94;;;9.39;100.00
70559;BME280;58108;48.094;11.838;2022-10-16T04:36:49;95509.66;;;9.59;100.00
70559;BME280;58108;48.094;11.838;2022-10-16T04:39:15;95509.09;;;9.78;100.00
70559;BME280;58108;48.094;11.838;2022-10-16T04:41:40;95515.94;;;10.04;100.00
70559;BME280;58108;48.094;11.838;2022-10-16T04:44:05;95518.72;;;10.48;100.00
70559;BME280;58108;48.094;11.838;2022-10-16T04:46:31;95518.72;;;10.71;100.00
70559;BME280;58108;48.094;11.838;2022-10-16T04:48:56;95516.66;;;10.97;100.00
70559;BME280;58108;48.094;11.838;2022-10-16T04:51:21;95508.19;;;10.93;100.00
70559;BME280;58108;48.094;11.838;2022-10-16T04:53:47;95512.09;;;10.99;100.00
70559;BME280;58108;48.094;11.838;2022-10-16T04:56:12;95506.84;;;11.11;100.00
70559;BME280;58108;48.094;11.838;2022-10-16T04:58:37;95499.78;;;11.23;100.00
70559;BME280;58108;48.094;11.838;2022-10-16T05:01:02;95499.91;;;11.21;100.00
70559;BME280;58108;48.094;11.838;2022-10-16T05:03:28;95493.13;;;11.18;100.00
70559;BME280;58108;48.094;11.838;2022-10-16T05:05:53;95500.38;;;11.15;100.00
70559;BME280;58108;48.094;11.838;2022-10-16T05:08:18;95504.06;;;11.24;100.00
70559;BME280;58108;48.094;11.838;2022-10-16T05:10:44;95497.38;;;11.31;100.00
70559;BME280;58108;48.094;11.838;2022-10-16T05:13:10;95491.38;;;11.40;100.00
70559;BME280;58108;48.094;11.838;2022-10-16T05:15:36;95496.00;;;11.48;100.00
70559;BME280;58108;48.094;11.838;2022-10-16T05:18:01;95498.25;;;11.53;100.00
70559;BME280;58108;48.094;11.838;2022-10-16T05:20:27;95500.47;;;11.57;100.00
70559;BME280;58108;48.094;11.838;2022-10-16T05:22:52;95507.38;;;11.58;100.00
70559;BME280;58108;48.094;11.838;2022-10-16T05:25:17;95511.03;;;11.67;100.00
70559;BME280;58108;48.094;11.838;2022-10-16T05:27:43;95502.69;;;11.73;100.00
70559;BME280;58108;48.094;11.838;2022-10-16T05:30:11;95498.31;;;11.84;100.00
70559;BME280;58108;48.094;11.838;2022-10-16T05:32:37;95504.97;;;11.88;100.00
70559;BME280;58108;48.094;11.838;2022-10-16T05:35:02;95502.09;;;11.91;100.00
70559;BME280;58108;48.094;11.838;2022-10-16T05:37:27;95506.38;;;11.92;100.00
70559;BME280;58108;48.094;11.838;2022-10-16T05:39:53;95506.13;;;11.95;100.00
70559;BME280;58108;48.094;11.838;2022-10-16T05:42:18;95505.16;;;11.96;100.00
70559;BME280;58108;48.094;11.838;2022-10-16T05:44:44;95513.75;;;11.98;100.00
70559;BME280;58108;48.094;11.838;2022-10-16T05:47:09;95518.75;;;12.01;100.00
70559;BME280;58108;48.094;11.838;2022-10-16T05:49:36;95507.53;;;11.99;100.00
70559;BME280;58108;48.094;11.838;2022-10-16T05:52:01;95515.22;;;12.12;100.00
70559;BME280;58108;48.094;11.838;2022-10-16T05:54:27;95513.06;;;12.17;100.00
70559;BME280;58108;48.094;11.838;2022-10-16T05:56:52;95517.91;;;12.22;100.00
70559;BME280;58108;48.094;11.838;2022-10-16T05:59:17;95528.84;;;12.27;99.61
70559;BME280;58108;48.094;11.838;2022-10-16T06:01:42;95534.38;;;12.24;99.78
70559;BME280;58108;48.094;11.838;2022-10-16T06:04:08;95537.00;;;12.24;99.95
70559;BME280;58108;48.094;11.838;2022-10-16T06:06:34;95546.53;;;12.25;100.00
70559;BME280;58108;48.094;11.838;2022-10-16T06:09:01;95556.19;;;12.25;100.00
70559;BME280;58108;48.094;11.838;2022-10-16T06:11:29;95551.66;;;12.27;100.00
70559;BME280;58108;48.094;11.838;2022-10-16T06:13:57;95556.59;;;12.20;100.00
70559;BME280;58108;48.094;11.838;2022-10-16T06:16:25;95556.31;;;12.23;100.00
70559;BME280;58108;48.094;11.838;2022-10-16T06:18:51;95553.75;;;12.33;100.00
70559;BME280;58108;48.094;11.838;2022-10-16T06:21:19;95559.84;;;12.34;100.00
70559;BME280;58108;48.094;11.838;2022-10-16T06:23:45;95567.22;;;12.40;99.09
70559;BME280;58108;48.094;11.838;2022-10-16T06:26:13;95565.78;;;12.36;99.64
70559;BME280;58108;48.094;11.838;2022-10-16T06:28:39;95570.09;;;12.37;99.53
70559;BME280;58108;48.094;11.838;2022-10-16T06:31:05;95571.06;;;12.36;99.77
70559;BME280;58108;48.094;11.838;2022-10-16T06:33:31;95581.56;;;12.36;100.00
70559;BME280;58108;48.094;11.838;2022-10-16T06:36:16;95577.53;;;12.32;100.00
70559;BME280;58108;48.094;11.838;2022-10-16T06:38:42;95584.31;;;12.34;100.00
70559;BME280;58108;48.094;11.838;2022-10-16T06:41:11;95569.44;;;12.44;99.92
70559;BME280;58108;48.094;11.838;2022-10-16T06:43:37;95568.81;;;12.31;100.00
70559;BME280;58108;48.094;11.838;2022-10-16T06:46:03;95569.75;;;12.51;100.00
70559;BME280;58108;48.094;11.838;2022-10-16T06:48:29;95575.84;;;12.52;100.00
70559;BME280;58108;48.094;11.838;2022-10-16T06:51:02;95574.22;;;12.61;100.00
70559;BME280;58108;48.094;11.838;2022-10-16T06:53:29;95580.19;;;12.63;100.00
70559;BME280;58108;48.094;11.838;2022-10-16T06:55:56;95596.66;;;12.65;100.00
70559;BME280;58108;48.094;11.838;2022-10-16T06:58:22;95602.03;;;12.63;100.00
70559;BME280;58108;48.094;11.838;2022-10-16T07:00:47;95602.47;;;12.68;100.00
70559;BME280;58108;48.094;11.838;2022-10-16T07:03:13;95603.59;;;12.76;100.00
70559;BME280;58108;48.094;11.838;2022-10-16T07:05:40;95603.66;;;12.85;100.00
70559;BME280;58108;48.094;11.838;2022-10-16T07:08:05;95605.03;;;12.90;99.51
70559;BME280;58108;48.094;11.838;2022-10-16T07:10:32;95606.75;;;13.01;98.56
70559;BME280;58108;48.094;11.838;2022-10-16T07:12:57;95608.47;;;13.21;96.99
70559;BME280;58108;48.094;11.838;2022-10-16T07:15:24;95618.75;;;13.34;95.89
70559;BME280;58108;48.094;11.838;2022-10-16T07:17:49;95616.56;;;13.39;96.51
70559;BME280;58108;48.094;11.838;2022-10-16T07:20:15;95619.38;;;13.48;95.41
70559;BME280;58108;48.094;11.838;2022-10-16T07:22:40;95621.72;;;13.51;95.10
70559;BME280;58108;48.094;11.838;2022-10-16T07:25:06;95620.78;;;13.52;94.69
70559;BME280;58108;48.094;11.838;2022-10-16T07:27:31;95627.41;;;13.56;95.32
70559;BME280;58108;48.094;11.838;2022-10-16T07:29:56;95628.84;;;13.70;94.50
70559;BME280;58108;48.094;11.838;2022-10-16T07:32:22;95630.22;;;13.74;95.74
70559;BME280;58108;48.094;11.838;2022-10-16T07:34:47;95635.50;;;13.84;97.44
70559;BME280;58108;48.094;11.838;2022-10-16T07:37:12;95630.66;;;13.89;96.87
70559;BME280;58108;48.094;11.838;2022-10-16T07:39:37;95634.13;;;14.00;96.56
70559;BME280;58108;48.094;11.838;2022-10-16T07:42:03;95646.31;;;14.11;97.07
70559;BME280;58108;48.094;11.838;2022-10-16T07:44:28;95644.63;;;14.29;96.85
70559;BME280;58108;48.094;11.838;2022-10-16T07:46:53;95637.44;;;14.41;95.01
70559;BME280;58108;48.094;11.838;2022-10-16T07:49:19;95638.13;;;14.53;94.57
70559;BME280;58108;48.094;11.838;2022-10-16T07:51:44;95648.78;;;14.61;94.05
70559;BME280;58108;48.094;11.838;2022-10-16T07:54:10;95654.44;;;14.67;93.34
70559;BME280;58108;48.094;11.838;2022-10-16T07:56:35;95658.31;;;14.72;88.40
70559;BME280;58108;48.094;11.838;2022-10-16T07:59:00;95654.84;;;14.82;88.24
70559;BME280;58108;48.094;11.838;2022-10-16T08:01:26;95659.25;;;15.01;88.80
70559;BME280;58108;48.094;11.838;2022-10-16T08:03:52;95659.75;;;15.14;87.80
70559;BME280;58108;48.094;11.838;2022-10-16T08:06:19;95657.91;;;15.25;85.73
70559;BME280;58108;48.094;11.838;2022-10-16T08:08:44;95665.78;;;15.35;84.33
70559;BME280;58108;48.094;11.838;2022-10-16T08:11:10;95674.19;;;15.48;83.91
70559;BME280;58108;48.094;11.838;2022-10-16T08:13:36;95678.34;;;15.51;82.95
70559;BME280;58108;48.094;11.838;2022-10-16T08:16:02;95665.63;;;15.64;81.84
70559;BME280;58108;48.094;11.838;2022-10-16T08:18:28;95670.63;;;15.67;81.64
70559;BME280;58108;48.094;11.838;2022-10-16T08:20:58;95669.50;;;15.70;80.19
70559;BME280;58108;48.094;11.838;2022-10-16T08:23:24;95672.34;;;15.77;79.55
70559;BME280;58108;48.094;11.838;2022-10-16T08:25:51;95676.47;;;15.89;79.78
70559;BME280;58108;48.094;11.838;2022-10-16T08:28:16;95677.69;;;15.95;80.40
70559;BME280;58108;48.094;11.838;2022-10-16T08:30:44;95676.66;;;16.06;80.64
70559;BME280;58108;48.094;11.838;2022-10-16T08:33:10;95682.53;;;16.18;81.45
70559;BME280;58108;48.094;11.838;2022-10-16T08:35:35;95675.53;;;16.26;78.53
70559;BME280;58108;48.094;11.838;2022-10-16T08:38:06;95680.09;;;16.43;78.34
70559;BME280;58108;48.094;11.838;2022-10-16T08:40:33;95685.50;;;16.51;77.52
70559;BME280;58108;48.094;11.838;2022-10-16T08:48:44;95685.19;;;16.80;76.18
70559;BME280;58108;48.094;11.838;2022-10-16T08:51:14;95688.66;;;16.99;79.23
70559;BME280;58108;48.094;11.838;2022-10-16T08:53:49;95684.75;;;17.12;78.83
70559;BME280;58108;48.094;11.838;2022-10-16T08:56:17;95691.75;;;17.21;78.88
70559;BME280;58108;48.094;11.838;2022-10-16T08:58:43;95684.56;;;17.31;77.62
70559;BME280;58108;48.094;11.838;2022-10-16T09:01:15;95689.56;;;17.43;76.47
70559;BME280;58108;48.094;11.838;2022-10-16T09:06:50;95699.78;;;17.72;78.14
70559;BME280;58108;48.094;11.838;2022-10-16T09:09:54;95691.53;;;17.84;76.80
70559;BME280;58108;48.094;11.838;2022-10-16T09:15:34;95710.59;;;17.96;75.36
70559;BME280;58108;48.094;11.838;2022-10-16T09:23:13;95705.56;;;18.19;74.22
70559;BME280;58108;48.094;11.838;2022-10-16T09:25:42;95711.72;;;18.28;75.25
70559;BME280;58108;48.094;11.838;2022-10-16T09:28:08;95712.53;;;18.45;74.89
70559;BME280;58108;48.094;11.838;2022-10-16T09:30:34;95719.34;;;18.56;75.72
70559;BME280;58108;48.094;11.838;2022-10-16T09:33:00;95718.19;;;18.58;74.09
70559;BME280;58108;48.094;11.838;2022-10-16T09:35:48;95720.69;;;18.68;74.73
70559;BME280;58108;48.094;11.838;2022-10-16T09:40:54;95715.56;;;18.92;74.41
70559;BME280;58108;48.094;11.838;2022-10-16T09:43:26;95716.06;;;19.04;74.37
70559;BME280;58108;48.094;11.838;2022-10-16T09:46:07;95713.25;;;19.13;74.27
70559;BME280;58108;48.094;11.838;2022-10-16T09:48:38;95720.00;;;19.33;75.36
70559;BME280;58108;48.094;11.838;2022-10-16T09:51:13;95722.78;;;19.39;74.83
70559;BME280;58108;48.094;11.838;2022-10-16T09:53:44;95715.63;;;19.57;74.63
70559;BME280;58108;48.094;11.838;2022-10-16T09:56:11;95721.38;;;19.68;73.55
70559;BME280;58108;48.094;11.838;2022-10-16T09:58:42;95720.44;;;19.93;73.51
70559;BME280;58108;48.094;11.838;2022-10-16T10:01:13;95717.47;;;19.96;71.12
70559;BME280;58108;48.094;11.838;2022-10-16T10:03:41;95720.75;;;20.06;72.28
70559;BME280;58108;48.094;11.838;2022-10-16T10:06:25;95722.25;;;20.32;72.12
70559;BME280;58108;48.094;11.838;2022-10-16T10:08:58;95721.88;;;20.44;70.80
70559;BME280;58108;48.094;11.838;2022-10-16T10:11:38;95721.91;;;20.59;70.37
70559;BME280;58108;48.094;11.838;2022-10-16T10:14:24;95729.25;;;20.57;68.35
70559;BME280;58108;48.094;11.838;2022-10-16T10:16:51;95716.75;;;20.57;66.10
70559;BME280;58108;48.094;11.838;2022-10-16T10:19:20;95729.81;;;20.67;66.23
70559;BME280;58108;48.094;11.838;2022-10-16T10:21:46;95730.66;;;20.91;66.99
70559;BME280;58108;48.094;11.838;2022-10-16T10:24:13;95726.47;;;20.97;66.48
70559;BME280;58108;48.094;11.838;2022-10-16T10:26:44;95726.66;;;21.10;66.93
70559;BME280;58108;48.094;11.838;2022-10-16T10:29:35;95726.88;;;21.24;67.36
70559;BME280;58108;48.094;11.838;2022-10-16T10:32:23;95720.56;;;21.40;67.00
70559;BME280;58108;48.094;11.838;2022-10-16T10:37:48;95714.38;;;21.39;64.01
70559;BME280;58108;48.094;11.838;2022-10-16T10:40:29;95711.91;;;21.53;65.42
70559;BME280;58108;48.094;11.838;2022-10-16T10:45:35;95713.59;;;21.69;62.67
70559;BME280;58108;48.094;11.838;2022-10-16T10:48:20;95712.78;;;21.68;60.75
70559;BME280;58108;48.094;11.838;2022-10-16T10:50:57;95716.44;;;21.82;61.14
70559;BME280;58108;48.094;11.838;2022-10-16T10:56:15;95716.22;;;22.36;59.52
70559;BME280;58108;48.094;11.838;2022-10-16T11:01:50;95708.94;;;23.81;60.64
70559;BME280;58108;48.094;11.838;2022-10-16T11:04:49;95709.47;;;24.80;57.16
70559;BME280;58108;48.094;11.838;2022-10-16T11:07:27;95700.81;;;26.51;51.92
70559;BME280;58108;48.094;11.838;2022-10-16T11:09:58;95710.72;;;26.82;50.67
70559;BME280;58108;48.094;11.838;2022-10-16T11:12:31;95708.09;;;27.26;47.34
70559;BME280;58108;48.094;11.838;2022-10-16T11:15:19;95706.34;;;28.93;45.77
70559;BME280;58108;48.094;11.838;2022-10-16T11:17:52;95715.28;;;29.66;38.61
70559;BME280;58108;48.094;11.838;2022-10-16T11:20:28;95712.75;;;27.82;36.79
70559;BME280;58108;48.094;11.838;2022-10-16T11:23:01;95704.44;;;27.65;34.22
70559;BME280;58108;48.094;11.838;2022-10-16T11:25:32;95705.47;;;28.01;32.82
70559;BME280;58108;48.094;11.838;2022-10-16T11:28:16;95708.88;;;28.46;32.58
70559;BME280;58108;48.094;11.838;2022-10-16T11:30:56;95703.69;;;27.57;31.13
70559;BME280;58108;48.094;11.838;2022-10-16T11:41:47;95704.50;;;29.66;29.73
70559;BME280;58108;48.094;11.838;2022-10-16T11:44:33;95697.41;;;28.50;29.27
70559;BME280;58108;48.094;11.838;2022-10-16T11:49:45;95695.25;;;28.71;29.25
70559;BME280;58108;48.094;11.838;2022-10-16T11:52:19;95700.72;;;29.07;28.53
70559;BME280;58108;48.094;11.838;2022-10-16T11:54:54;95694.50;;;29.42;29.16
70559;BME280;58108;48.094;11.838;2022-10-16T11:57:28;95693.03;;;28.68;28.84
70559;BME280;58108;48.094;11.838;2022-10-16T12:05:20;95692.88;;;28.32;28.09
70559;BME280;58108;48.094;11.838;2022-10-16T12:08:14;95683.19;;;28.74;27.23
70559;BME280;58108;48.094;11.838;2022-10-16T12:10:43;95689.03;;;30.14;26.00
70559;BME280;58108;48.094;11.838;2022-10-16T12:13:34;95686.81;;;30.86;26.31
70559;BME280;58108;48.094;11.838;2022-10-16T12:16:28;95694.72;;;32.01;25.05
70559;BME280;58108;48.094;11.838;2022-10-16T12:19:10;95688.63;;;29.81;26.86
70559;BME280;58108;48.094;11.838;2022-10-16T12:21:36;95680.09;;;29.60;26.06
70559;BME280;58108;48.094;11.838;2022-10-16T12:24:03;95688.19;;;29.01;26.71
70559;BME280;58108;48.094;11.838;2022-10-16T12:26:33;95687.97;;;30.44;25.39
70559;BME280;58108;48.094;11.838;2022-10-16T12:29:33;95695.81;;;30.75;24.78
70559;BME280;58108;48.094;11.838;2022-10-16T12:31:56;95693.38;;;31.07;26.96
70559;BME280;58108;48.094;11.838;2022-10-16T12:34:44;95683.72;;;31.85;24.11
70559;BME280;58108;48.094;11.838;2022-10-16T12:39:38;95686.94;;;32.32;23.90
70559;BME280;58108;48.094;11.838;2022-10-16T12:42:05;95688.16;;;31.97;23.28
70559;BME280;58108;48.094;11.838;2022-10-16T12:44:35;95687.88;;;32.98;24.48
70559;BME280;58108;48.094;11.838;2022-10-16T12:47:02;95687.03;;;32.65;22.93
70559;BME280;58108;48.094;11.838;2022-10-16T12:51:53;95685.66;;;31.90;24.04
70559;BME280;58108;48.094;11.838;2022-10-16T12:54:25;95681.69;;;31.81;23.13
70559;BME280;58108;48.094;11.838;2022-10-16T12:57:17;95670.09;;;31.41;24.04
70559;BME280;58108;48.094;11.838;2022-10-16T13:05:28;95682.50;;;33.03;23.46
70559;BME280;58108;48.094;11.838;2022-10-16T13:08:21;95674.69;;;31.40;23.44
70559;BME280;58108;48.094;11.838;2022-10-16T13:11:06;95681.72;;;32.48;22.46
70559;BME280;58108;48.094;11.838;2022-10-16T13:16:50;95678.59;;;33.75;22.00
70559;BME280;58108;48.094;11.838;2022-10-16T13:19:35;95679.06;;;33.18;20.98
70559;BME280;58108;48.094;11.838;2022-10-16T13:22:27;95680.78;;;33.73;21.86
70559;BME280;58108;48.094;11.838;2022-10-16T13:27:47;95678.97;;;35.20;20.03
70559;BME280;58108;48.094;11.838;2022-10-16T13:30:21;95681.34;;;35.42;19.92
70559;BME280;58108;48.094;11.838;2022-10-16T13:32:48;95684.34;;;34.58;21.44
70559;BME280;58108;48.094;11.838;2022-10-16T13:35:19;95683.91;;;32.83;22.70
70559;BME280;58108;48.094;11.838;2022-10-16T13:37:45;95683.47;;;32.64;25.98
70559;BME280;58108;48.094;11.838;2022-10-16T13:40:29;95682.06;;;32.34;25.29
70559;BME280;58108;48.094;11.838;2022-10-16T13:42:54;95679.56;;;31.60;23.96
70559;BME280;58108;48.094;11.838;2022-10-16T13:45:21;95682.75;;;33.45;26.74
70559;BME280;58108;48.094;11.838;2022-10-16T13:47:47;95681.22;;;33.54;24.43
70559;BME280;58108;48.094;11.838;2022-10-16T13:50:17;95677.66;;;33.10;24.70
70559;BME280;58108;48.094;11.838;2022-10-16T13:52:43;95680.47;;;32.11;26.29
70559;BME280;58108;48.094;11.838;2022-10-16T13:55:13;95684.03;;;32.66;23.13
70559;BME280;58108;48.094;11.838;2022-10-16T13:57:39;95688.41;;;32.40;23.33
70559;BME280;58108;48.094;11.838;2022-10-16T14:00:24;95688.63;;;32.93;23.62
70559;BME280;58108;48.094;11.838;2022-10-16T14:02:58;95692.16;;;31.89;21.99
70559;BME280;58108;48.094;11.838;2022-10-16T14:05:26;95685.16;;;31.76;23.96
70559;BME280;58108;48.094;11.838;2022-10-16T14:07:52;95683.88;;;30.71;25.29
70559;BME280;58108;48.094;11.838;2022-10-16T14:10:25;95687.13;;;32.25;23.23
70559;BME280;58108;48.094;11.838;2022-10-16T14:13:01;95680.41;;;32.05;23.20
70559;BME280;58108;48.094;11.838;2022-10-16T14:15:27;95688.06;;;33.24;21.46
70559;BME280;58108;48.094;11.838;2022-10-16T14:17:54;95693.22;;;33.20;22.35
70559;BME280;58108;48.094;11.838;2022-10-16T14:20:25;95687.19;;;33.13;23.23
70559;BME280;58108;48.094;11.838;2022-10-16T14:22:59;95684.88;;;32.17;24.79